Time;durP1;ratioP1;P1;durP2;ratioP2;P2;SDS_P1;SDS_P2;PMS_P1;PMS_P2;Temp;Humidity;BMP_temperature;BMP_pressure;BME280_temperature;BME280_humidity;BME280_pressure;Samples;Min_cycle;Max_cycle;Signal;HPM_P1;HPM_P2
2021/11/11 00:00:18;;;;;;;60.33;34.18;;;;;;;4.38;87.16;101550.05;1660997;85;28211;-87
2021/11/11 00:02:47;;;;;;;63.90;34.05;;;;;;;4.37;87.21;101547.50;1663118;85;25822;-86
2021/11/11 00:05:14;;;;;;;62.73;31.42;;;;;;;4.37;87.25;101540.87;1638775;85;25918;-86
2021/11/11 00:07:41;;;;;;;60.55;35.17;;;;;;;4.39;87.25;101537.12;1655219;84;26477;-86
2021/11/11 00:10:12;;;;;;;58.08;31.87;;;;;;;4.40;87.14;101546.79;1635277;86;25560;-87
2021/11/11 00:12:39;;;;;;;64.32;33.60;;;;;;;4.37;87.03;101536.41;1615811;86;27436;-87
2021/11/11 00:15:10;;;;;;;58.50;32.88;;;;;;;4.36;87.03;101540.02;1646695;86;25404;-87
2021/11/11 00:17:38;;;;;;;58.78;32.55;;;;;;;4.37;86.91;101540.87;1652414;84;25868;-87
2021/11/11 00:20:08;;;;;;;57.95;32.23;;;;;;;4.36;86.92;101527.27;1662164;84;25868;-87
2021/11/11 00:22:36;;;;;;;55.10;32.13;;;;;;;4.36;86.83;101529.41;1587155;85;25854;-87
2021/11/11 00:25:05;;;;;;;59.18;33.63;;;;;;;4.37;86.75;101535.09;1656279;84;27601;-87
2021/11/11 00:27:32;;;;;;;60.33;33.40;;;;;;;4.36;86.72;101531.24;1646680;85;25320;-87
2021/11/11 00:30:00;;;;;;;60.43;32.08;;;;;;;4.37;86.70;101532.91;1660965;85;25940;-86
2021/11/11 00:32:27;;;;;;;59.60;32.83;;;;;;;4.34;86.59;101523.89;1622879;85;25849;-87
2021/11/11 00:34:54;;;;;;;60.90;33.18;;;;;;;4.33;86.52;101525.70;1629511;86;26571;-87
2021/11/11 00:37:23;;;;;;;53.28;31.27;;;;;;;4.33;86.52;101530.15;1634073;86;27587;-85
2021/11/11 00:39:51;;;;;;;62.93;34.67;;;;;;;4.31;86.48;101524.98;1663637;85;25349;-86
2021/11/11 00:42:19;;;;;;;64.97;33.80;;;;;;;4.29;86.48;101526.91;1641063;85;25886;-86
2021/11/11 00:44:48;;;;;;;64.97;33.53;;;;;;;4.27;86.48;101535.95;1644602;85;26023;-87
2021/11/11 00:47:16;;;;;;;55.83;33.15;;;;;;;4.27;86.62;101531.98;1662341;85;25865;-87
2021/11/11 00:49:44;;;;;;;64.10;34.08;;;;;;;4.25;86.64;101541.87;1657069;86;27585;-86
2021/11/11 00:52:11;;;;;;;60.15;33.08;;;;;;;4.25;86.68;101536.56;1644437;85;25871;-86
2021/11/11 00:54:41;;;;;;;59.25;33.13;;;;;;;4.25;86.76;101543.19;1609686;86;25865;-86
2021/11/11 00:57:11;;;;;;;58.40;32.48;;;;;;;4.23;86.78;101548.63;1658397;85;25944;-87
2021/11/11 00:59:42;;;;;;;57.83;31.62;;;;;;;4.23;86.81;101545.13;1660682;86;26439;-85
2021/11/11 01:02:10;;;;;;;57.13;31.87;;;;;;;4.22;86.87;101536.80;1663053;85;28181;-86
2021/11/11 01:04:39;;;;;;;58.02;31.87;;;;;;;4.22;86.94;101545.60;1639360;86;25977;-85
2021/11/11 01:07:09;;;;;;;66.07;32.93;;;;;;;4.21;86.88;101537.30;1663607;85;25311;-86
2021/11/11 01:09:37;;;;;;;59.55;32.88;;;;;;;4.22;86.94;101536.80;1628352;86;26464;-85
2021/11/11 01:12:06;;;;;;;63.45;33.13;;;;;;;4.23;86.90;101539.82;1618235;85;25903;-86
2021/11/11 01:14:33;;;;;;;55.20;31.90;;;;;;;4.24;86.82;101534.86;1624289;85;27364;-86
2021/11/11 01:17:01;;;;;;;63.63;33.35;;;;;;;4.23;86.75;101529.22;1661224;86;25369;-85
2021/11/11 01:19:28;;;;;;;60.98;33.28;;;;;;;4.22;86.70;101532.34;1642464;86;26576;-87
2021/11/11 01:21:55;;;;;;;63.33;33.88;;;;;;;4.19;86.66;101525.13;1633860;85;26030;-85
2021/11/11 01:24:22;;;;;;;62.95;33.33;;;;;;;4.18;86.73;101529.58;1610283;86;25401;-86
2021/11/11 01:26:49;;;;;;;60.25;34.23;;;;;;;4.19;86.77;101531.76;1650094;85;27478;-86
2021/11/11 01:29:16;;;;;;;62.25;33.55;;;;;;;4.19;86.62;101531.76;1636911;86;26124;-86
2021/11/11 01:31:45;;;;;;;61.92;34.00;;;;;;;4.18;86.67;101532.70;1635224;86;26082;-86
2021/11/11 01:34:12;;;;;;;62.62;33.23;;;;;;;4.20;86.65;101532.95;1633981;85;26697;-86
2021/11/11 01:36:39;;;;;;;57.45;34.08;;;;;;;4.16;86.55;101535.97;1642575;86;25696;-86
2021/11/11 01:39:08;;;;;;;65.70;35.05;;;;;;;4.15;86.54;101536.44;1648815;85;27540;-86
2021/11/11 01:41:47;;;;;;;65.00;35.80;;;;;;;4.15;86.22;101531.64;1654353;85;25967;-85
2021/11/11 01:44:18;;;;;;;64.45;34.48;;;;;;;4.13;86.11;101533.58;1615590;85;25931;-85
2021/11/11 01:46:46;;;;;;;63.60;34.13;;;;;;;4.11;86.19;101530.18;1666200;84;26625;-85
2021/11/11 01:49:13;;;;;;;62.60;33.95;;;;;;;4.07;86.28;101532.24;1662872;84;25349;-86
2021/11/11 01:51:44;;;;;;;62.23;33.83;;;;;;;4.05;86.34;101536.83;1599150;87;27450;-86
2021/11/11 01:54:11;;;;;;;72.67;35.52;;;;;;;4.05;86.43;101541.28;1639501;85;25990;-86
2021/11/11 01:56:38;;;;;;;63.15;34.67;;;;;;;4.05;86.47;101538.16;1654123;86;25917;-86
2021/11/11 01:59:10;;;;;;;67.15;36.10;;;;;;;4.05;86.42;101532.85;1652622;85;26008;-86
2021/11/11 02:01:39;;;;;;;66.67;37.17;;;;;;;4.04;86.43;101527.20;1627822;84;25917;-86
2021/11/11 02:04:06;;;;;;;67.42;37.35;;;;;;;4.05;86.26;101514.77;1638062;85;28350;-86
2021/11/11 02:06:35;;;;;;;62.80;36.85;;;;;;;4.04;86.12;101513.95;1665571;84;26037;-86
2021/11/11 02:09:05;;;;;;;70.47;34.13;;;;;;;4.04;86.08;101517.92;1607957;86;25749;-86
2021/11/11 02:11:34;;;;;;;60.43;33.33;;;;;;;4.02;85.81;101515.03;1625104;86;26044;-86
2021/11/11 02:14:01;;;;;;;57.70;31.77;;;;;;;4.00;85.75;101511.16;1630106;85;25974;-86
2021/11/11 02:16:28;;;;;;;63.80;33.50;;;;;;;4.00;85.64;101517.78;1660284;85;28213;-86
2021/11/11 02:18:56;;;;;;;60.38;31.52;;;;;;;3.97;85.49;101527.33;1630409;86;25824;-86
2021/11/11 02:21:23;;;;;;;63.10;31.93;;;;;;;3.95;85.52;101535.03;1606463;86;26158;-86
2021/11/11 02:23:58;;;;;;;62.08;32.78;;;;;;;3.93;85.56;101543.93;1657252;85;25906;-85
2021/11/11 02:26:39;;;;;;;60.60;31.48;;;;;;;3.92;85.72;101550.69;1636724;85;25961;-85
2021/11/11 02:29:08;;;;;;;58.92;31.97;;;;;;;3.87;85.94;101548.39;1643115;85;27622;-86
2021/11/11 02:31:36;;;;;;;63.55;33.92;;;;;;;3.85;86.11;101545.02;1653249;85;26007;-85
2021/11/11 02:34:03;;;;;;;62.10;32.08;;;;;;;3.86;86.31;101531.30;1634558;84;26014;-86
2021/11/11 02:36:32;;;;;;;59.93;32.73;;;;;;;3.85;86.33;101525.15;1670142;84;26796;-87
2021/11/11 02:39:00;;;;;;;58.98;32.67;;;;;;;3.85;86.44;101524.30;1654134;85;25969;-85
2021/11/11 02:41:28;;;;;;;58.35;32.23;;;;;;;3.85;86.52;101526.47;1611629;87;27639;-86
2021/11/11 02:43:55;;;;;;;58.60;32.20;;;;;;;3.85;86.44;101521.17;1640473;85;25463;-86
2021/11/11 02:46:25;;;;;;;63.63;34.67;;;;;;;3.85;86.57;101512.38;1640517;86;26069;-86
2021/11/11 02:48:53;;;;;;;59.30;32.38;;;;;;;3.87;86.63;101516.59;1651211;85;26475;-86
2021/11/11 02:51:20;;;;;;;60.83;33.13;;;;;;;3.86;86.59;101511.42;1661406;84;25782;-85
2021/11/11 02:53:47;;;;;;;62.40;34.78;;;;;;;3.85;86.53;101512.38;1637646;84;27562;-86
2021/11/11 02:56:14;;;;;;;58.30;33.23;;;;;;;3.86;86.63;101516.25;1678258;84;25754;-86
2021/11/11 02:58:42;;;;;;;56.92;32.65;;;;;;;3.88;86.51;101512.14;1636931;86;25811;-85
2021/11/11 03:01:10;;;;;;;54.35;32.35;;;;;;;3.87;86.13;101516.59;1601135;86;26459;-86
2021/11/11 03:03:37;;;;;;;51.85;31.07;;;;;;;3.83;85.67;101515.16;1644899;86;25372;-86
2021/11/11 03:06:05;;;;;;;56.75;31.57;;;;;;;3.79;85.52;101519.02;1633048;85;27667;-85
2021/11/11 03:08:35;;;;;;;56.50;31.82;;;;;;;3.75;85.40;101518.90;1633222;85;26593;-86
2021/11/11 03:11:05;;;;;;;54.10;31.15;;;;;;;3.71;85.33;101526.73;1649818;84;25408;-86
2021/11/11 03:13:34;;;;;;;60.67;33.00;;;;;;;3.69;85.26;101522.51;1635819;85;25773;-86
2021/11/11 03:16:03;;;;;;;60.95;32.00;;;;;;;3.66;85.18;101524.91;1656924;85;26111;-86
2021/11/11 03:18:31;;;;;;;53.33;30.05;;;;;;;3.63;85.24;101522.52;1654915;85;28188;-86
2021/11/11 03:21:00;;;;;;;52.53;30.37;;;;;;;3.61;85.11;101524.45;1654780;85;25855;-86
2021/11/11 03:23:27;;;;;;;58.60;31.50;;;;;;;3.58;85.01;101522.02;1604356;86;25921;-86
2021/11/11 03:25:55;;;;;;;58.65;31.80;;;;;;;3.55;84.90;101524.90;1654266;86;25990;-86
2021/11/11 03:28:25;;;;;;;57.10;31.00;;;;;;;3.52;84.91;101523.83;1651252;85;25815;-86
2021/11/11 03:30:52;;;;;;;54.98;31.17;;;;;;;3.49;84.86;101513.46;1647094;84;28288;-86
2021/11/11 03:33:20;;;;;;;58.25;34.92;;;;;;;3.48;84.93;101512.27;1622132;84;25478;-86
2021/11/11 03:35:47;;;;;;;55.38;33.18;;;;;;;3.48;85.08;101510.94;1663479;84;25996;-87
2021/11/11 03:38:14;;;;;;;59.67;33.92;;;;;;;3.46;85.17;101523.46;1630143;84;26481;-86
2021/11/11 03:40:45;;;;;;;58.50;33.18;;;;;;;3.42;85.10;101528.13;1626408;85;26083;-85
2021/11/11 03:43:15;;;;;;;59.00;32.28;;;;;;;3.37;84.76;101524.16;1631855;86;28144;-85
2021/11/11 03:45:43;;;;;;;55.95;31.80;;;;;;;3.31;84.51;101517.55;1653791;86;25344;-85
2021/11/11 03:48:10;;;;;;;57.25;31.80;;;;;;;3.27;84.33;101517.90;1636454;85;25850;-86
2021/11/11 03:50:38;;;;;;;57.05;30.82;;;;;;;3.24;84.51;101524.73;1647562;85;25916;-86
2021/11/11 03:53:08;;;;;;;50.23;30.23;;;;;;;3.17;84.41;101523.03;1601496;85;25394;-86
2021/11/11 03:55:35;;;;;;;54.33;32.30;;;;;;;3.10;84.27;101524.48;1674944;85;27657;-85
2021/11/11 03:58:03;;;;;;;51.63;31.42;;;;;;;3.05;84.13;101516.04;1655217;84;25808;-86
2021/11/11 04:00:32;;;;;;;57.08;31.17;;;;;;;2.97;83.96;101518.43;1597639;85;25828;-87
2021/11/11 04:03:00;;;;;;;48.98;29.42;;;;;;;2.93;83.99;101515.66;1624501;85;25875;-86
2021/11/11 04:05:28;;;;;;;57.33;30.62;;;;;;;2.91;84.13;101521.04;1665021;85;25808;-86
2021/11/11 04:07:57;;;;;;;57.08;31.30;;;;;;;2.87;84.01;101515.62;1657706;84;27734;-86
2021/11/11 04:10:24;;;;;;;55.12;30.85;;;;;;;2.83;84.01;101522.10;1668485;84;26119;-86
2021/11/11 04:12:53;;;;;;;54.53;30.60;;;;;;;2.80;84.14;101518.85;1629113;86;25382;-86
2021/11/11 04:15:20;;;;;;;56.83;31.70;;;;;;;2.74;84.00;101508.23;1618405;86;26006;-86
2021/11/11 04:17:47;;;;;;;60.15;33.13;;;;;;;2.71;84.06;101512.45;1640264;86;25883;-86
2021/11/11 04:20:14;;;;;;;57.27;31.57;;;;;;;2.68;84.15;101505.20;1638274;84;27423;-86
2021/11/11 04:22:42;;;;;;;52.50;31.30;;;;;;;2.70;84.31;101509.42;1658411;85;25749;-85
2021/11/11 04:25:16;;;;;;;60.20;31.33;;;;;;;2.72;84.47;101504.86;1629306;85;25393;-86
2021/11/11 04:27:49;;;;;;;57.25;32.05;;;;;;;2.73;84.32;101496.45;1607130;85;44784;-86
2021/11/11 04:32:59;;;;;;;62.15;32.73;;;;;;;2.73;84.28;101493.80;1677607;84;27489;-86
2021/11/11 04:35:27;;;;;;;58.70;32.08;;;;;;;2.73;84.39;101489.84;1653433;85;25921;-85
2021/11/11 05:04:29;;;;;;;48.30;29.35;;;;;;;2.61;84.07;101473.57;1676640;84;25999;-86
2021/11/11 05:06:56;;;;;;;51.63;29.25;;;;;;;2.57;83.99;101476.91;1662965;84;25979;-85
2021/11/11 05:09:24;;;;;;;55.58;29.45;;;;;;;2.52;83.92;101474.25;1636195;85;25790;-85
2021/11/11 05:11:51;;;;;;;52.75;28.90;;;;;;;2.47;83.92;101471.94;1649921;85;27570;-86
2021/11/11 05:14:18;;;;;;;48.87;28.45;;;;;;;2.45;84.01;101480.94;1677856;84;25794;-86
2021/11/11 05:16:46;;;;;;;52.58;28.47;;;;;;;2.43;83.92;101476.25;1666995;84;26371;-86
2021/11/11 05:19:14;;;;;;;63.78;34.43;;;;;;;2.39;83.54;101476.11;1646804;84;26307;-87
2021/11/11 05:21:41;;;;;;;63.30;33.78;;;;;;;2.31;83.29;101476.66;1626116;86;25391;-86
2021/11/11 05:24:11;;;;;;;66.05;33.92;;;;;;;2.25;83.12;101479.76;1694445;84;27582;-86
2021/11/11 05:26:40;;;;;;;58.75;32.48;;;;;;;2.17;83.13;101471.55;1690430;84;25982;-85
2021/11/11 05:29:08;;;;;;;64.05;34.48;;;;;;;2.11;83.17;101469.36;1670160;84;25849;-87
2021/11/11 05:31:36;;;;;;;64.90;35.35;;;;;;;2.04;83.12;101461.03;1613380;86;26600;-86
2021/11/11 05:34:05;;;;;;;56.15;32.15;;;;;;;1.98;83.10;101454.88;1682775;83;25839;-85
2021/11/11 05:36:32;;;;;;;79.03;40.78;;;;;;;1.93;83.19;101460.11;1647638;85;27386;-87
2021/11/11 05:38:59;;;;;;;95.12;47.43;;;;;;;1.91;83.42;101460.70;1638395;84;26013;-86
2021/11/11 05:41:26;;;;;;;75.90;41.08;;;;;;;1.86;83.71;101460.20;1647298;84;25864;-85
2021/11/11 05:43:54;;;;;;;75.25;35.08;;;;;;;1.83;83.91;101459.94;1673494;85;26502;-85
2021/11/11 05:46:22;;;;;;;64.17;32.93;;;;;;;1.81;84.20;101467.13;1631260;85;25911;-86
2021/11/11 05:48:50;;;;;;;75.45;39.92;;;;;;;1.82;84.41;101477.23;1610266;87;28300;-86
2021/11/11 05:51:17;;;;;;;112.40;51.58;;;;;;;1.83;84.38;101483.72;1614675;85;25535;-85
2021/11/11 05:53:44;;;;;;;95.22;46.50;;;;;;;1.79;83.95;101481.40;1658390;85;26680;-85
2021/11/11 05:56:11;;;;;;;97.20;45.12;;;;;;;1.77;83.94;101470.10;1628612;85;25835;-86
2021/11/11 05:58:38;;;;;;;77.42;39.95;;;;;;;1.77;84.18;101470.10;1640850;86;25848;-86
2021/11/11 06:01:06;;;;;;;72.95;36.98;;;;;;;1.78;84.56;101460.73;1644460;85;27572;-86
2021/11/11 06:03:37;;;;;;;58.68;31.52;;;;;;;1.80;84.98;101464.58;1659281;86;26302;-86
2021/11/11 06:06:05;;;;;;;79.40;38.48;;;;;;;1.81;85.25;101482.13;1641561;85;25856;-87
2021/11/11 06:08:34;;;;;;;69.65;34.20;;;;;;;1.78;84.43;101483.19;1637219;85;26503;-87
2021/11/11 06:11:01;;;;;;;64.90;32.83;;;;;;;1.72;84.31;101489.38;1644513;86;25928;-86
2021/11/11 06:13:28;;;;;;;59.08;32.67;;;;;;;1.67;83.96;101486.24;1660680;86;27452;-87
2021/11/11 06:15:57;;;;;;;56.75;31.30;;;;;;;1.62;83.83;101485.71;1656577;85;26433;-87
2021/11/11 06:18:24;;;;;;;58.58;32.10;;;;;;;1.58;83.74;101481.13;1628621;86;25908;-86
2021/11/11 06:21:00;;;;;;;54.30;31.15;;;;;;;1.55;83.81;101481.33;1645456;85;25920;-86
2021/11/11 06:23:29;;;;;;;61.23;33.05;;;;;;;1.51;83.76;101480.72;1657565;86;26600;-84
2021/11/11 06:25:57;;;;;;;62.08;33.45;;;;;;;1.49;83.83;101484.41;1632423;85;27401;-86
2021/11/11 06:28:24;;;;;;;57.50;31.17;;;;;;;1.49;83.95;101484.41;1618790;85;26368;-86
2021/11/11 06:30:53;;;;;;;84.58;41.65;;;;;;;1.48;84.11;101480.92;1596836;87;26202;-86
2021/11/11 06:33:23;;;;;;;124.45;52.23;;;;;;;1.50;84.23;101480.33;1651607;84;26319;-86
2021/11/11 06:35:50;;;;;;;104.38;48.75;;;;;;;1.52;84.41;101478.89;1658635;84;25355;-87
2021/11/11 06:38:17;;;;;;;102.90;46.73;;;;;;;1.55;84.63;101483.97;1627356;87;27587;-85
2021/11/11 06:40:44;;;;;;;84.47;43.38;;;;;;;1.58;84.88;101485.91;1588309;85;26370;-85
2021/11/11 06:43:11;;;;;;;83.70;43.15;;;;;;;1.61;85.06;101485.33;1665596;85;25826;-87
2021/11/11 06:45:44;;;;;;;76.55;38.78;;;;;;;1.63;85.17;101486.91;1644231;85;26118;-86
2021/11/11 06:48:13;;;;;;;75.08;38.20;;;;;;;1.63;84.71;101493.52;1630463;86;25800;-86
2021/11/11 06:50:41;;;;;;;68.80;39.10;;;;;;;1.64;84.82;101497.86;1632453;86;27548;-85
2021/11/11 06:53:10;;;;;;;66.10;35.88;;;;;;;1.67;85.00;101503.41;1648899;86;25858;-86
2021/11/11 06:55:39;;;;;;;65.75;37.08;;;;;;;1.69;84.98;101501.50;1574417;87;26023;-86
2021/11/11 06:58:07;;;;;;;66.22;34.33;;;;;;;1.70;84.95;101496.56;1603277;87;26576;-86
2021/11/11 07:00:35;;;;;;;62.43;33.80;;;;;;;1.72;85.20;101505.23;1636074;87;25954;-86
2021/11/11 07:03:02;;;;;;;69.62;36.50;;;;;;;1.76;85.43;101500.94;1635933;86;27480;-86
2021/11/11 07:05:29;;;;;;;66.02;33.73;;;;;;;1.81;85.44;101497.52;1595151;87;25865;-86
2021/11/11 07:07:56;;;;;;;62.35;35.55;;;;;;;1.83;85.21;101496.07;1625555;86;25863;-86
2021/11/11 07:10:24;;;;;;;62.83;36.15;;;;;;;1.86;85.39;101491.91;1596639;86;25885;-85
2021/11/11 07:12:52;;;;;;;62.40;33.98;;;;;;;1.93;85.94;101495.77;1652595;86;25846;-85
2021/11/11 07:15:19;;;;;;;57.40;32.85;;;;;;;1.99;86.41;101496.68;1618807;87;27559;-85
2021/11/11 07:17:46;;;;;;;62.23;34.83;;;;;;;2.05;86.82;101493.59;1609693;86;25834;-84
2021/11/11 07:20:15;;;;;;;63.15;34.08;;;;;;;2.10;87.08;101488.80;1602434;87;25834;-86
2021/11/11 07:22:45;;;;;;;68.55;37.20;;;;;;;2.14;87.25;101491.11;1629049;87;26465;-86
2021/11/11 07:25:15;;;;;;;62.38;35.40;;;;;;;2.20;87.52;101497.27;1625053;86;26162;-84
2021/11/11 07:27:43;;;;;;;67.10;36.03;;;;;;;2.26;87.71;101484.10;1654096;86;27655;-85
2021/11/11 07:30:15;;;;;;;67.32;37.40;;;;;;;2.33;87.97;101478.23;1596982;87;26009;-86
2021/11/11 07:32:43;;;;;;;67.75;38.30;;;;;;;2.40;88.23;101483.07;1647077;86;25839;-86
2021/11/11 07:35:11;;;;;;;70.45;38.28;;;;;;;2.45;88.31;101481.80;1631307;86;25605;-86
2021/11/11 07:37:43;;;;;;;72.95;39.33;;;;;;;2.53;88.39;101483.85;1594639;87;25950;-86
2021/11/11 07:40:14;;;;;;;71.12;39.20;;;;;;;2.61;88.59;101478.36;1610076;87;27538;-86
2021/11/11 07:42:42;;;;;;;69.35;38.33;;;;;;;2.68;88.78;101484.89;1645394;87;25891;-86
2021/11/11 07:45:13;;;;;;;71.97;38.95;;;;;;;2.75;88.84;101489.24;1648708;86;25356;-86
2021/11/11 07:47:40;;;;;;;72.87;38.30;;;;;;;2.81;88.93;101482.16;1602066;86;26043;-86
2021/11/11 07:50:09;;;;;;;70.10;39.70;;;;;;;2.87;89.10;101474.61;1659472;84;25949;-87
2021/11/11 07:52:37;;;;;;;79.82;45.73;;;;;;;2.94;89.27;101482.45;1679182;84;27523;-86
2021/11/11 07:55:06;;;;;;;75.30;41.65;;;;;;;3.01;89.34;101477.06;1610450;85;25822;-85
2021/11/11 07:57:34;;;;;;;73.30;40.40;;;;;;;3.08;89.44;101480.05;1612303;84;25920;-85
2021/11/11 08:00:05;;;;;;;61.15;36.28;;;;;;;3.16;89.48;101482.98;1646387;86;26538;-86
2021/11/11 08:02:34;;;;;;;64.37;35.43;;;;;;;3.22;89.51;101481.19;1654621;85;25349;-84
2021/11/11 08:05:01;;;;;;;60.23;34.83;;;;;;;3.28;89.69;101466.14;1645144;85;27638;-86
2021/11/11 08:07:28;;;;;;;64.00;34.83;;;;;;;3.36;89.83;101468.21;1623692;84;25844;-86
2021/11/11 08:09:55;;;;;;;62.55;34.15;;;;;;;3.39;89.82;101462.66;1667662;84;25786;-85
2021/11/11 08:12:23;;;;;;;55.23;32.58;;;;;;;3.46;89.85;101454.59;1646047;86;25889;-86
2021/11/11 08:14:50;;;;;;;59.53;32.53;;;;;;;3.51;90.03;101457.71;1638333;86;25850;-85
2021/11/11 08:17:18;;;;;;;60.92;34.98;;;;;;;3.58;90.03;101463.75;1641092;86;27239;-89
2021/11/11 08:19:45;;;;;;;63.30;33.92;;;;;;;3.65;90.13;101464.11;1670320;84;25719;-85
2021/11/11 08:22:13;;;;;;;56.55;33.98;;;;;;;3.73;90.23;101466.98;1665119;85;25829;-85
2021/11/11 08:24:43;;;;;;;62.25;35.28;;;;;;;3.80;90.18;101465.54;1623954;84;25864;-86
2021/11/11 08:27:14;;;;;;;54.27;32.98;;;;;;;3.88;90.24;101465.28;1668074;84;25861;-85
2021/11/11 08:29:43;;;;;;;61.02;34.70;;;;;;;3.97;90.33;101466.83;1671695;84;27634;-85
2021/11/11 08:32:13;;;;;;;59.27;33.70;;;;;;;4.05;90.25;101461.75;1669228;84;25715;-87
2021/11/11 08:34:43;;;;;;;60.28;34.18;;;;;;;4.12;90.15;101454.99;1626704;84;25367;-85
2021/11/11 08:37:11;;;;;;;63.55;32.73;;;;;;;4.20;90.21;101448.57;1633537;84;26551;-85
2021/11/11 08:39:40;;;;;;;69.65;37.53;;;;;;;4.27;90.26;101438.69;1677932;84;25376;-87
2021/11/11 08:42:10;;;;;;;69.62;35.20;;;;;;;4.35;90.25;101442.02;1669227;85;27557;-86
2021/11/11 08:44:42;;;;;;;58.10;35.83;;;;;;;4.42;90.16;101442.73;1636947;83;33381;-85
2021/11/11 08:47:18;;;;;;;55.55;34.25;;;;;;;4.50;90.09;101442.92;1658136;84;25870;-86
2021/11/11 08:49:51;;;;;;;62.23;34.55;;;;;;;4.57;90.14;101436.15;1649751;85;26443;-87
2021/11/11 08:52:20;;;;;;;64.17;36.35;;;;;;;4.65;90.15;101443.45;1667673;85;26252;-86
2021/11/11 08:54:49;;;;;;;62.58;34.48;;;;;;;4.73;90.04;101439.67;1596410;84;28246;-87
2021/11/11 08:57:16;;;;;;;61.33;36.25;;;;;;;4.81;89.99;101439.04;1645035;84;26148;-85
2021/11/11 08:59:43;;;;;;;57.62;33.65;;;;;;;4.87;90.10;101441.17;1667825;84;25892;-86
2021/11/11 09:02:11;;;;;;;64.82;36.73;;;;;;;4.94;90.00;101438.36;1677411;84;25897;-86
2021/11/11 09:04:38;;;;;;;64.00;36.88;;;;;;;5.01;89.89;101440.83;1617513;85;25367;-86
2021/11/11 09:07:05;;;;;;;64.25;38.33;;;;;;;5.07;89.89;101441.14;1636158;85;27531;-86
2021/11/11 09:09:33;;;;;;;63.50;36.23;;;;;;;5.14;89.87;101440.98;1654176;86;25955;-86
2021/11/11 09:11:59;;;;;;;61.35;34.85;;;;;;;5.21;89.66;101432.86;1665026;85;25877;-86
2021/11/11 09:14:26;;;;;;;69.35;39.53;;;;;;;5.28;89.63;101431.84;1615331;86;25819;-86
2021/11/11 09:16:53;;;;;;;71.60;38.78;;;;;;;5.33;89.44;101431.79;1635180;85;25927;-86
2021/11/11 09:19:21;;;;;;;62.50;39.18;;;;;;;5.39;89.57;101434.39;1644418;86;27577;-86
2021/11/11 09:21:48;;;;;;;65.03;37.10;;;;;;;5.45;89.58;101425.91;1663719;85;25873;-87
2021/11/11 09:24:15;;;;;;;60.90;36.45;;;;;;;5.52;89.44;101426.22;1633768;86;26282;-87
2021/11/11 09:26:42;;;;;;;62.88;36.68;;;;;;;5.58;89.50;101421.17;1656540;85;25794;-87
2021/11/11 09:29:10;;;;;;;61.15;36.95;;;;;;;5.64;89.44;101429.97;1658032;85;25771;-87
2021/11/11 09:31:39;;;;;;;66.55;36.33;;;;;;;5.71;89.40;101428.94;1654391;86;27572;-86
2021/11/11 09:34:06;;;;;;;61.45;37.00;;;;;;;5.76;89.31;101432.86;1628288;86;26049;-86
2021/11/11 09:36:34;;;;;;;57.88;36.53;;;;;;;5.84;89.39;101429.54;1627415;85;25964;-88
2021/11/11 09:39:04;;;;;;;57.70;35.25;;;;;;;5.90;89.21;101421.05;1665029;85;26564;-87
2021/11/11 09:41:31;;;;;;;58.48;36.40;;;;;;;5.96;89.21;101423.15;1661122;86;25733;-86
2021/11/11 09:43:58;;;;;;;56.85;34.23;;;;;;;6.02;89.11;101418.61;1604112;86;27656;-86
2021/11/11 09:46:26;;;;;;;58.60;35.63;;;;;;;6.06;88.81;101420.86;1653459;85;26089;-88
2021/11/11 09:48:53;;;;;;;55.52;35.08;;;;;;;6.11;88.78;101417.31;1663435;85;26024;-87
2021/11/11 09:51:22;;;;;;;64.87;36.63;;;;;;;6.16;88.80;101420.37;1617994;86;26511;-86
2021/11/11 09:59:05;;;;;;;56.00;33.38;;;;;;;6.35;88.53;101404.90;1673165;84;25906;-88
2021/11/11 10:01:33;;;;;;;54.30;34.18;;;;;;;6.42;88.55;101401.19;1679109;84;25779;-87
2021/11/11 10:04:00;;;;;;;60.55;36.38;;;;;;;6.47;88.45;101398.48;1655125;85;26586;-86
2021/11/11 10:06:30;;;;;;;60.75;36.28;;;;;;;6.53;88.39;101407.70;1614589;87;26492;-87
2021/11/11 10:09:00;;;;;;;57.80;35.65;;;;;;;6.57;88.26;101406.44;1659050;85;27223;-87
2021/11/11 10:11:37;;;;;;;56.42;33.05;;;;;;;6.62;88.31;101413.04;1671918;85;25821;-87
2021/11/11 10:14:10;;;;;;;54.27;34.70;;;;;;;6.68;88.37;101417.79;1612631;87;25721;-87
2021/11/11 10:16:44;;;;;;;57.67;36.30;;;;;;;6.73;88.13;101421.36;1652574;85;25828;-86
2021/11/11 10:19:12;;;;;;;58.33;35.13;;;;;;;6.78;88.08;101427.08;1660980;85;25337;-86
2021/11/11 10:21:55;;;;;;;65.12;37.42;;;;;;;6.84;88.01;101424.69;1663412;85;27538;-87
2021/11/11 10:24:56;;;;;;;61.70;36.63;;;;;;;6.88;88.18;101418.12;1610858;87;25444;-86
2021/11/11 10:30:18;;;;;;;53.85;34.00;;;;;;;6.98;87.73;101408.77;1682507;84;26094;-87
2021/11/11 10:32:51;;;;;;;59.75;34.83;;;;;;;7.03;87.97;101405.67;1692633;84;25874;-86
2021/11/11 10:35:29;;;;;;;54.75;34.53;;;;;;;7.10;88.13;101406.27;1662321;85;28228;-86
2021/11/11 10:38:04;;;;;;;57.95;35.17;;;;;;;7.14;87.68;101401.51;1650770;85;25919;-86
2021/11/11 10:40:38;;;;;;;54.90;34.30;;;;;;;7.18;87.52;101398.90;1678725;85;25718;-87
2021/11/11 10:43:13;;;;;;;55.33;35.43;;;;;;;7.24;86.87;101400.98;1647893;86;25970;-87
2021/11/11 10:45:44;;;;;;;56.08;32.63;;;;;;;7.26;87.07;101399.85;1653355;86;25890;-87
2021/11/11 10:48:14;;;;;;;;;;;;;;;7.33;87.41;101400.95;1626008;87;27528;-87
2021/11/11 10:50:49;;;;;;;51.10;32.55;;;;;;;7.39;87.32;101393.70;1674647;84;25397;-85
2021/11/11 10:53:24;;;;;;;53.33;33.73;;;;;;;7.42;87.07;101389.39;1627411;87;25869;-86
2021/11/11 10:55:59;;;;;;;54.35;34.25;;;;;;;7.46;87.05;101388.11;1649516;84;26508;-87
2021/11/11 10:58:34;;;;;;;53.23;33.05;;;;;;;7.52;86.95;101384.03;1623931;85;25949;-87
2021/11/11 11:01:08;;;;;;;54.77;34.08;;;;;;;7.57;86.87;101383.10;1664894;83;27475;-87
2021/11/11 11:03:42;;;;;;;59.00;34.90;;;;;;;7.60;86.57;101388.12;1661332;84;25780;-87
2021/11/11 11:06:20;;;;;;;54.80;33.88;;;;;;;7.61;86.63;101389.81;1655126;85;25361;-87
2021/11/11 11:08:52;;;;;;;49.80;32.08;;;;;;;7.65;86.49;101385.38;1649667;84;26488;-87
2021/11/11 11:11:24;;;;;;;51.18;32.23;;;;;;;7.69;86.32;101391.23;1669493;84;25837;-88
2021/11/11 11:13:55;;;;;;;49.55;31.70;;;;;;;7.72;86.28;101393.58;1655979;85;27482;-87
2021/11/11 11:16:29;;;;;;;57.58;35.17;;;;;;;7.76;86.41;101387.80;1642557;85;25803;-88
2021/11/11 11:19:10;;;;;;;51.33;32.60;;;;;;;7.83;86.42;101389.91;1659519;85;26847;-87
2021/11/11 11:21:40;;;;;;;;;;;;;;;7.87;86.15;101382.75;1615799;87;25919;-87
2021/11/11 11:24:12;;;;;;;55.73;32.13;;;;;;;7.91;86.05;101390.83;1647504;85;25884;-88
2021/11/11 11:26:47;;;;;;;50.63;31.80;;;;;;;7.93;85.84;101389.34;1672621;84;28311;-87
2021/11/11 11:29:26;;;;;;;50.15;31.42;;;;;;;7.95;85.50;101388.20;1666624;84;26033;-87
2021/11/11 11:32:06;;;;;;;49.48;32.50;;;;;;;7.98;85.70;101381.22;1641298;84;25839;-87
2021/11/11 11:34:44;;;;;;;50.12;33.18;;;;;;;8.03;85.60;101374.09;1656309;85;25844;-87
2021/11/11 11:37:15;;;;;;;48.92;31.15;;;;;;;8.07;85.51;101377.64;1669884;85;25791;-88
2021/11/11 11:39:56;;;;;;;50.73;30.85;;;;;;;8.12;85.51;101370.52;1666581;84;27529;-88
2021/11/11 11:42:31;;;;;;;46.35;31.77;;;;;;;8.15;85.09;101366.20;1654159;85;25814;-88
2021/11/11 11:45:11;;;;;;;49.35;32.73;;;;;;;8.18;84.83;101360.08;1657399;84;25924;-88
2021/11/11 11:47:50;;;;;;;49.98;30.82;;;;;;;8.22;84.72;101355.27;1658774;84;25828;-88
2021/11/11 11:50:28;;;;;;;54.60;33.38;;;;;;;8.22;84.63;101349.44;1655767;85;25937;-88
2021/11/11 11:53:03;;;;;;;50.43;33.00;;;;;;;8.25;84.44;101349.63;1643792;84;27004;-87
2021/11/11 11:58:53;;;;;;;46.35;30.80;;;;;;;8.29;84.45;101341.69;1665495;86;25345;-88
2021/11/11 12:40:10;;;;;;;52.98;32.35;;;;;;;8.72;82.50;101335.02;1637415;86;25399;-88
2021/11/11 12:42:54;;;;;;;49.98;31.40;;;;;;;8.75;82.89;101337.84;1647788;86;25880;-87
2021/11/11 12:45:35;;;;;;;46.95;29.40;;;;;;;8.75;82.69;101337.36;1620848;86;25848;-87